createdAt,value
2022-09-22T00:01:31.650Z,5.40
2022-09-22T00:04:02.508Z,5.40
2022-09-22T00:06:32.446Z,5.50
2022-09-22T00:09:01.514Z,5.50
2022-09-22T00:11:36.558Z,5.50
2022-09-22T00:14:14.007Z,5.40
2022-09-22T00:16:47.915Z,5.30
2022-09-22T00:19:30.795Z,5.20
2022-09-22T00:21:58.620Z,5.20
2022-09-22T00:24:27.563Z,5.20
2022-09-22T00:26:57.809Z,5.20
2022-09-22T00:29:27.517Z,5.10
2022-09-22T00:31:56.452Z,5.30
2022-09-22T00:34:26.058Z,5.20
2022-09-22T00:36:54.912Z,5.20
2022-09-22T00:39:22.398Z,5.10
2022-09-22T00:41:52.904Z,5.10
2022-09-22T00:44:38.853Z,5.10
2022-09-22T00:47:26.399Z,5.20
2022-09-22T00:50:18.452Z,5.10
2022-09-22T00:52:50.532Z,5.00
2022-09-22T00:55:29.744Z,4.90
2022-09-22T00:58:00.115Z,5.00
2022-09-22T01:00:27.520Z,5.00
2022-09-22T01:02:58.056Z,4.90
2022-09-22T01:05:28.118Z,4.80
2022-09-22T01:07:55.465Z,4.70
2022-09-22T01:10:24.130Z,4.70
2022-09-22T01:13:10.689Z,4.70
2022-09-22T01:15:54.196Z,4.70
2022-09-22T01:18:40.925Z,4.70
2022-09-22T01:21:33.174Z,4.70
2022-09-22T01:24:26.578Z,4.80
2022-09-22T01:27:23.585Z,4.70
2022-09-22T01:30:11.922Z,4.60
2022-09-22T01:32:53.633Z,4.60
2022-09-22T01:35:27.144Z,4.60
2022-09-22T01:38:03.067Z,4.70
2022-09-22T01:40:50.399Z,4.70
2022-09-22T01:43:30.816Z,4.70
2022-09-22T01:46:03.149Z,4.70
2022-09-22T01:48:35.262Z,4.70
2022-09-22T01:51:12.023Z,4.70
2022-09-22T01:53:44.123Z,4.70
2022-09-22T01:56:14.862Z,4.70
2022-09-22T01:58:48.310Z,4.60
2022-09-22T02:01:19.463Z,4.50
2022-09-22T02:03:51.840Z,4.50
2022-09-22T02:06:40.399Z,4.50
2022-09-22T02:09:10.744Z,4.60
2022-09-22T02:11:38.582Z,4.60
2022-09-22T02:14:07.191Z,4.60
2022-09-22T02:16:34.891Z,4.60
2022-09-22T02:19:25.678Z,4.70
2022-09-22T02:21:53.181Z,4.80
2022-09-22T02:24:40.342Z,4.90
2022-09-22T02:27:27.473Z,4.80
2022-09-22T02:30:03.020Z,4.80
2022-09-22T02:32:32.544Z,4.70
2022-09-22T02:35:00.953Z,4.60
2022-09-22T02:37:39.356Z,4.60
2022-09-22T02:40:30.518Z,4.60
2022-09-22T02:43:17.071Z,4.60
2022-09-22T02:45:53.251Z,4.60
2022-09-22T02:48:24.469Z,4.60
2022-09-22T02:50:53.518Z,4.60
2022-09-22T02:53:21.004Z,4.60
2022-09-22T02:55:48.749Z,4.60
2022-09-22T02:58:17.292Z,4.60
2022-09-22T03:00:45.534Z,4.70
2022-09-22T03:03:12.904Z,4.70
2022-09-22T03:05:40.220Z,4.80
2022-09-22T03:08:08.399Z,4.90
2022-09-22T03:10:36.392Z,4.80
2022-09-22T03:13:18.929Z,4.80
2022-09-22T03:15:46.656Z,4.70
2022-09-22T03:18:14.250Z,4.70
2022-09-22T03:20:41.806Z,4.70
2022-09-22T03:23:09.228Z,4.70
2022-09-22T03:25:36.602Z,4.70
2022-09-22T03:28:04.191Z,4.60
2022-09-22T03:30:32.105Z,4.60
2022-09-22T03:32:59.451Z,4.60
2022-09-22T03:35:27.405Z,4.60
2022-09-22T03:37:55.246Z,4.70
2022-09-22T03:40:23.245Z,4.70
2022-09-22T03:42:51.229Z,4.80
2022-09-22T03:45:19.206Z,4.80
2022-09-22T03:47:46.706Z,4.80
2022-09-22T03:50:14.183Z,4.70
2022-09-22T03:52:43.782Z,4.70
2022-09-22T03:55:13.040Z,4.70
2022-09-22T03:57:44.042Z,4.70
2022-09-22T04:00:13.958Z,4.70
2022-09-22T04:02:41.660Z,4.60
2022-09-22T04:05:10.008Z,4.60
2022-09-22T04:07:38.822Z,4.70
2022-09-22T04:10:06.584Z,4.60
2022-09-22T04:12:33.903Z,4.60
2022-09-22T04:15:01.218Z,4.50
2022-09-22T04:17:30.603Z,4.50
2022-09-22T04:19:58.026Z,4.60
2022-09-22T04:22:25.329Z,4.60
2022-09-22T04:24:52.665Z,4.70
2022-09-22T04:27:21.132Z,4.60
2022-09-22T04:29:49.039Z,4.70
2022-09-22T04:32:17.542Z,4.70
2022-09-22T04:34:45.105Z,4.70
2022-09-22T04:37:12.442Z,4.70
2022-09-22T04:39:39.787Z,4.60
2022-09-22T04:42:08.999Z,4.60
2022-09-22T04:44:36.402Z,4.50
2022-09-22T04:47:04.813Z,4.40
2022-09-22T04:49:32.246Z,4.20
2022-09-22T04:51:59.555Z,4.10
2022-09-22T04:54:27.011Z,4.10
2022-09-22T04:56:54.288Z,4.00
2022-09-22T04:59:21.744Z,3.90
2022-09-22T05:01:49.331Z,3.80
2022-09-22T05:04:17.985Z,3.90
2022-09-22T05:06:45.462Z,3.90
2022-09-22T05:09:13.226Z,3.90
2022-09-22T05:11:40.538Z,3.90
2022-09-22T05:14:07.983Z,3.90
2022-09-22T05:16:36.707Z,3.90
2022-09-22T05:19:04.114Z,3.90
2022-09-22T05:21:31.855Z,3.90
2022-09-22T05:24:00.839Z,4.00
2022-09-22T05:26:30.864Z,3.90
2022-09-22T05:28:58.213Z,3.90
2022-09-22T05:31:26.497Z,3.90
2022-09-22T05:33:53.941Z,3.80
2022-09-22T05:36:21.302Z,3.80
2022-09-22T05:38:48.712Z,3.80
2022-09-22T05:41:16.146Z,3.80
2022-09-22T05:43:43.873Z,3.90
2022-09-22T05:46:11.415Z,3.80
2022-09-22T05:48:39.142Z,3.80
2022-09-22T05:51:07.053Z,3.80
2022-09-22T05:53:34.375Z,3.90
2022-09-22T05:56:01.958Z,4.00
2022-09-22T05:58:29.728Z,4.10
2022-09-22T06:00:58.243Z,4.20
2022-09-22T06:03:26.600Z,4.30
2022-09-22T06:05:53.981Z,4.30
2022-09-22T06:08:21.962Z,4.40
2022-09-22T06:10:51.317Z,4.40
2022-09-22T06:13:18.768Z,4.40
2022-09-22T06:15:49.319Z,4.50
2022-09-22T06:18:22.067Z,4.60
2022-09-22T06:20:52.904Z,4.60
2022-09-22T06:23:23.711Z,4.70
2022-09-22T06:25:57.923Z,4.90
2022-09-22T06:28:25.451Z,5.10
2022-09-22T06:30:53.103Z,5.40
2022-09-22T06:33:23.492Z,5.50
2022-09-22T06:35:50.826Z,5.70
2022-09-22T06:38:18.272Z,5.80
2022-09-22T06:40:45.691Z,6.00
2022-09-22T06:43:20.359Z,6.30
2022-09-22T06:45:48.959Z,6.60
2022-09-22T06:48:17.904Z,7.20
2022-09-22T06:50:53.271Z,8.00
2022-09-22T06:53:23.691Z,9.00
2022-09-22T06:55:54.037Z,10.00
2022-09-22T06:58:22.312Z,11.10
2022-09-22T07:00:50.545Z,12.10
2022-09-22T07:03:26.153Z,12.90
2022-09-22T07:06:00.972Z,13.50
2022-09-22T07:08:30.443Z,13.90
2022-09-22T07:11:03.941Z,14.30
2022-09-22T07:13:33.041Z,14.60
2022-09-22T07:16:01.719Z,14.90
2022-09-22T07:18:30.385Z,15.40
2022-09-22T07:21:09.292Z,15.80
2022-09-22T07:23:36.771Z,16.20
2022-09-22T07:26:06.354Z,16.60
2022-09-22T07:28:35.666Z,16.90
2022-09-22T07:31:12.040Z,17.30
2022-09-22T07:33:41.764Z,17.60
2022-09-22T07:36:14.239Z,17.70
2022-09-22T07:38:43.357Z,17.80
2022-09-22T07:41:12.948Z,18.00
2022-09-22T07:43:42.012Z,18.40
2022-09-22T07:46:09.865Z,19.00
2022-09-22T07:48:37.912Z,19.50
2022-09-22T07:51:12.907Z,19.90
2022-09-22T07:53:43.581Z,20.20
2022-09-22T07:56:13.440Z,20.60
2022-09-22T07:58:47.565Z,21.10
2022-09-22T08:01:22.219Z,21.60
2022-09-22T08:03:50.718Z,22.00
2022-09-22T08:06:19.983Z,22.30
2022-09-22T08:08:53.576Z,22.80
2022-09-22T08:11:28.538Z,23.30
2022-09-22T08:14:01.006Z,23.70
2022-09-22T08:16:30.980Z,24.30
2022-09-22T08:19:03.076Z,24.60
2022-09-22T08:21:47.691Z,25.10
2022-09-22T08:24:21.753Z,25.40
2022-09-22T08:26:50.524Z,25.80
2022-09-22T08:29:18.016Z,26.00
2022-09-22T08:31:46.854Z,26.40
2022-09-22T08:34:16.506Z,26.80
2022-09-22T08:36:46.326Z,27.40
2022-09-22T08:39:14.054Z,27.80
2022-09-22T08:41:51.966Z,28.30
2022-09-22T08:44:32.771Z,28.70
2022-09-22T08:47:01.835Z,28.90
2022-09-22T08:50:07.829Z,29.10
2022-09-22T08:52:48.400Z,29.60
2022-09-22T08:55:26.603Z,29.90
2022-09-22T08:58:11.650Z,30.50
2022-09-22T09:00:45.875Z,31.00
2022-09-22T09:03:29.721Z,30.80
2022-09-22T09:06:18.720Z,30.60
2022-09-22T09:09:08.006Z,30.90
2022-09-22T09:11:48.724Z,31.70
2022-09-22T09:14:37.284Z,32.20
2022-09-22T09:17:28.550Z,32.70
2022-09-22T09:20:03.227Z,32.80
2022-09-22T09:22:44.926Z,33.60
2022-09-22T09:25:27.837Z,33.70
2022-09-22T09:28:06.773Z,34.30
2022-09-22T09:30:43.776Z,34.50
2022-09-22T09:33:41.105Z,34.80
2022-09-22T09:36:17.803Z,33.80
2022-09-22T09:38:51.881Z,33.80
2022-09-22T09:41:32.670Z,34.90
2022-09-22T09:44:01.617Z,35.70
2022-09-22T09:47:05.473Z,36.10
2022-09-22T09:49:36.433Z,36.60
2022-09-22T09:52:13.208Z,36.90
2022-09-22T09:54:44.047Z,36.90
2022-09-22T09:57:16.931Z,37.30
2022-09-22T10:00:05.045Z,37.40
2022-09-22T10:02:59.975Z,37.20
2022-09-22T10:05:27.330Z,37.50
2022-09-22T10:08:16.084Z,37.90
2022-09-22T10:10:45.866Z,38.20
2022-09-22T10:13:23.202Z,38.70
2022-09-22T10:16:05.982Z,37.50
2022-09-22T10:18:40.602Z,38.10
2022-09-22T10:21:19.057Z,38.20
2022-09-22T10:23:50.930Z,39.10
2022-09-22T10:26:23.106Z,39.20
2022-09-22T10:29:18.624Z,39.80
2022-09-22T10:32:17.954Z,39.50
2022-09-22T10:34:47.821Z,38.60
2022-09-22T10:37:24.274Z,38.10
2022-09-22T10:39:53.477Z,37.60
2022-09-22T10:42:27.612Z,38.60
2022-09-22T10:45:01.379Z,39.20
2022-09-22T10:48:03.583Z,39.00
2022-09-22T10:50:45.863Z,39.40
2022-09-22T10:53:27.405Z,39.20
2022-09-22T10:56:09.859Z,39.10
2022-09-22T10:58:40.262Z,39.10
2022-09-22T11:01:31.889Z,39.40
2022-09-22T11:04:17.400Z,39.90
2022-09-22T11:07:20.561Z,38.80
2022-09-22T11:10:42.493Z,38.70
2022-09-22T11:13:27.826Z,39.90
2022-09-22T11:16:07.391Z,38.90
2022-09-22T11:18:50.742Z,38.70
2022-09-22T11:21:45.580Z,37.70
2022-09-22T11:24:21.980Z,40.10
2022-09-22T11:26:57.273Z,41.10
2022-09-22T11:29:45.345Z,41.70
2022-09-22T11:32:29.526Z,42.20
2022-09-22T11:35:21.551Z,41.50
2022-09-22T11:38:10.639Z,40.40
2022-09-22T11:41:07.043Z,40.40
2022-09-22T11:44:02.598Z,40.20
2022-09-22T11:46:55.478Z,39.60
2022-09-22T11:49:47.660Z,39.40
2022-09-22T11:52:43.717Z,36.60
2022-09-22T11:55:40.690Z,33.30
2022-09-22T11:58:18.453Z,31.50
2022-09-22T12:00:59.809Z,30.00
2022-09-22T12:03:33.086Z,31.30
2022-09-22T12:06:05.638Z,33.70
2022-09-22T12:11:28.388Z,35.60
2022-09-22T12:14:00.015Z,33.20
2022-09-22T12:16:41.849Z,30.40
2022-09-22T12:19:27.249Z,29.10
2022-09-22T12:22:29.630Z,31.60
2022-09-22T12:24:57.105Z,30.00
2022-09-22T12:27:27.461Z,28.20
2022-09-22T12:30:08.833Z,27.60
2022-09-22T12:32:42.592Z,30.30
2022-09-22T12:35:30.264Z,31.60
2022-09-22T12:38:02.059Z,33.40
2022-09-22T12:40:35.530Z,35.40
2022-09-22T12:43:03.463Z,36.20
2022-09-22T12:45:37.124Z,36.60
2022-09-22T12:48:18.968Z,37.20
2022-09-22T12:50:46.611Z,37.70
2022-09-22T12:53:23.285Z,36.50
2022-09-22T12:55:52.550Z,31.90
2022-09-22T12:58:24.273Z,30.10
2022-09-22T13:00:57.108Z,27.70
2022-09-22T13:03:30.166Z,26.50
2022-09-22T13:06:20.161Z,25.90
2022-09-22T13:08:53.697Z,25.20
2022-09-22T13:11:59.895Z,25.00
2022-09-22T13:15:01.516Z,27.50
2022-09-22T13:17:41.544Z,30.90
2022-09-22T13:20:33.345Z,33.20
2022-09-22T13:23:12.175Z,31.60
2022-09-22T13:25:44.523Z,32.50
2022-09-22T13:28:21.647Z,33.10
2022-09-22T13:31:21.475Z,33.50
2022-09-22T13:33:48.874Z,34.70
2022-09-22T13:36:18.724Z,35.30
2022-09-22T13:38:51.244Z,34.40
2022-09-22T13:41:24.186Z,33.50
2022-09-22T13:43:58.414Z,33.50
2022-09-22T13:46:33.009Z,33.50
2022-09-22T13:49:00.773Z,33.60
2022-09-22T13:51:28.639Z,32.50
2022-09-22T13:53:57.825Z,32.50
2022-09-22T13:56:26.695Z,32.30
2022-09-22T13:58:57.908Z,32.70
2022-09-22T14:01:27.254Z,30.30
2022-09-22T14:03:55.811Z,29.10
2022-09-22T14:06:25.514Z,29.70
2022-09-22T14:08:55.072Z,30.40
2022-09-22T14:11:27.110Z,30.50
2022-09-22T14:14:00.964Z,30.60
2022-09-22T14:16:32.191Z,30.00
2022-09-22T14:19:23.405Z,29.80
2022-09-22T14:21:55.441Z,29.30
2022-09-22T14:24:50.353Z,28.80
2022-09-22T14:27:33.041Z,29.00
2022-09-22T14:30:01.201Z,29.30
2022-09-22T14:32:41.359Z,28.90
2022-09-22T14:35:27.842Z,29.20
2022-09-22T14:38:05.471Z,28.90
2022-09-22T14:40:39.294Z,28.60
2022-09-22T14:43:21.786Z,28.70
2022-09-22T14:46:08.748Z,28.40
2022-09-22T14:48:37.046Z,28.60
2022-09-22T14:51:11.981Z,28.30
2022-09-22T14:53:47.567Z,28.10
2022-09-22T14:56:23.719Z,27.80
2022-09-22T14:58:53.450Z,26.90
2022-09-22T15:01:48.779Z,26.30
2022-09-22T15:04:31.182Z,25.80
2022-09-22T15:06:59.410Z,26.70
2022-09-22T15:09:38.856Z,26.80
2022-09-22T15:12:36.440Z,26.10
2022-09-22T15:15:31.407Z,25.80
2022-09-22T15:18:18.831Z,25.40
2022-09-22T15:20:53.531Z,25.00
2022-09-22T15:23:35.706Z,24.80
2022-09-22T15:26:04.222Z,24.60
2022-09-22T15:28:38.018Z,24.40
2022-09-22T15:31:06.962Z,24.30
2022-09-22T15:33:34.691Z,24.40
2022-09-22T15:36:10.098Z,24.40
2022-09-22T15:38:39.041Z,24.30
2022-09-22T15:41:36.173Z,24.50
2022-09-22T15:44:04.222Z,23.60
2022-09-22T15:46:35.857Z,22.80
2022-09-22T15:49:21.050Z,22.50
2022-09-22T15:52:13.977Z,22.10
2022-09-22T15:54:41.754Z,22.40
2022-09-22T15:57:10.211Z,22.00
2022-09-22T15:59:39.141Z,21.70
2022-09-22T16:02:11.747Z,21.50
2022-09-22T16:04:39.348Z,21.80
2022-09-22T16:07:12.372Z,21.60
2022-09-22T16:09:40.148Z,21.60
2022-09-22T16:12:11.129Z,21.50
2022-09-22T16:15:03.922Z,21.40
2022-09-22T16:17:31.974Z,21.20
2022-09-22T16:20:00.265Z,21.00
2022-09-22T16:22:28.126Z,20.70
2022-09-22T16:24:56.674Z,20.60
2022-09-22T16:27:24.121Z,20.30
2022-09-22T16:29:51.531Z,20.10
2022-09-22T16:32:18.841Z,20.00
2022-09-22T16:34:46.098Z,20.00
2022-09-22T16:37:15.033Z,20.20
2022-09-22T16:39:42.727Z,20.00
2022-09-22T16:42:10.150Z,19.80
2022-09-22T16:44:38.149Z,19.30
2022-09-22T16:47:05.562Z,19.00
2022-09-22T16:49:37.532Z,18.80
2022-09-22T16:52:04.904Z,18.70
2022-09-22T16:54:33.721Z,18.50
2022-09-22T16:57:01.120Z,18.30
2022-09-22T16:59:28.894Z,18.10
2022-09-22T17:01:56.865Z,17.90
2022-09-22T17:04:25.012Z,17.80
2022-09-22T17:06:58.255Z,17.60
2022-09-22T17:09:25.906Z,17.40
2022-09-22T17:11:54.011Z,17.20
2022-09-22T17:14:21.999Z,16.90
2022-09-22T17:16:55.315Z,16.60
2022-09-22T17:19:28.174Z,16.20
2022-09-22T17:21:56.547Z,15.90
2022-09-22T17:24:25.154Z,15.70
2022-09-22T17:26:57.920Z,15.50
2022-09-22T17:29:31.392Z,15.40
2022-09-22T17:32:05.740Z,15.20
2022-09-22T17:34:34.143Z,15.10
2022-09-22T17:37:03.129Z,14.90
2022-09-22T17:39:31.778Z,14.70
2022-09-22T17:41:59.903Z,14.60
2022-09-22T17:44:31.164Z,14.40
2022-09-22T17:47:17.491Z,14.30
2022-09-22T17:50:03.789Z,14.10
2022-09-22T17:52:39.895Z,14.00
2022-09-22T17:55:15.896Z,13.80
2022-09-22T17:57:45.401Z,13.70
2022-09-22T18:00:15.326Z,13.50
2022-09-22T18:02:43.833Z,13.40
2022-09-22T18:05:13.256Z,13.30
2022-09-22T18:07:41.223Z,13.20
2022-09-22T18:10:14.487Z,13.00
2022-09-22T18:12:42.683Z,12.90
2022-09-22T18:15:14.969Z,12.70
2022-09-22T18:17:42.862Z,12.60
2022-09-22T18:20:13.601Z,12.50
2022-09-22T18:22:41.663Z,12.40
2022-09-22T18:25:10.855Z,12.30
2022-09-22T18:27:38.539Z,12.30
2022-09-22T18:30:06.853Z,12.20
2022-09-22T18:32:35.621Z,12.00
2022-09-22T18:35:03.402Z,11.90
2022-09-22T18:37:30.819Z,11.70
2022-09-22T18:39:58.198Z,11.70
2022-09-22T18:42:27.454Z,11.60
2022-09-22T18:44:55.259Z,11.40
2022-09-22T18:47:23.214Z,11.30
2022-09-22T18:49:53.646Z,11.20
2022-09-22T18:52:23.861Z,11.10
2022-09-22T18:54:53.835Z,11.10
2022-09-22T18:57:24.370Z,11.00
2022-09-22T18:59:51.800Z,11.00
2022-09-22T19:02:23.365Z,11.00
2022-09-22T19:04:53.634Z,11.00
2022-09-22T19:07:42.845Z,11.00
2022-09-22T19:10:13.909Z,10.90
2022-09-22T19:12:41.590Z,10.80
2022-09-22T19:15:13.361Z,10.70
2022-09-22T19:17:45.923Z,10.50
2022-09-22T19:20:17.243Z,10.50
2022-09-22T19:22:45.756Z,10.40
2022-09-22T19:25:13.253Z,10.40
2022-09-22T19:27:40.848Z,10.30
2022-09-22T19:30:09.689Z,10.30
2022-09-22T19:32:37.709Z,10.30
2022-09-22T19:35:06.823Z,10.20
2022-09-22T19:37:34.157Z,10.20
2022-09-22T19:40:02.138Z,10.20
2022-09-22T19:42:29.693Z,10.10
2022-09-22T19:44:56.996Z,10.10
2022-09-22T19:47:24.454Z,10.00
2022-09-22T19:49:51.795Z,9.90
2022-09-22T19:52:19.449Z,9.90
2022-09-22T19:54:47.645Z,9.80
2022-09-22T19:57:15.047Z,9.80
2022-09-22T19:59:42.362Z,9.80
2022-09-22T20:02:13.431Z,9.70
2022-09-22T20:04:41.340Z,9.70
2022-09-22T20:07:10.696Z,9.60
2022-09-22T20:09:38.477Z,9.60
2022-09-22T20:12:06.933Z,9.50
2022-09-22T20:14:34.458Z,9.50
2022-09-22T20:17:05.602Z,9.50
2022-09-22T20:19:35.654Z,9.50
2022-09-22T20:22:29.683Z,9.50
2022-09-22T20:25:00.851Z,9.50
2022-09-22T20:27:31.546Z,9.50
2022-09-22T20:30:00.126Z,9.50
2022-09-22T20:32:31.692Z,9.40
2022-09-22T20:34:59.243Z,9.30
2022-09-22T20:37:26.598Z,9.30
2022-09-22T20:39:54.410Z,9.30
2022-09-22T20:42:22.018Z,9.20
2022-09-22T20:44:49.550Z,9.10
2022-09-22T20:47:18.917Z,9.10
2022-09-22T20:49:50.834Z,9.10
2022-09-22T20:52:20.507Z,9.10
2022-09-22T20:54:48.636Z,9.10
2022-09-22T20:57:16.796Z,9.00
2022-09-22T20:59:45.527Z,9.00
2022-09-22T21:02:14.134Z,9.10
2022-09-22T21:04:42.067Z,9.00
2022-09-22T21:07:11.163Z,8.90
2022-09-22T21:09:56.914Z,8.90
2022-09-22T21:12:30.767Z,8.80
2022-09-22T21:14:58.889Z,8.80
2022-09-22T21:17:27.762Z,8.90
2022-09-22T21:19:57.726Z,8.90
2022-09-22T21:22:28.037Z,8.90
2022-09-22T21:24:56.250Z,8.90
2022-09-22T21:27:24.989Z,8.90
2022-09-22T21:29:53.120Z,9.00
2022-09-22T21:32:20.657Z,9.00
2022-09-22T21:34:48.350Z,9.00
2022-09-22T21:37:15.839Z,8.90
2022-09-22T21:39:43.771Z,8.90
2022-09-22T21:42:11.253Z,8.80
2022-09-22T21:44:38.709Z,8.70
2022-09-22T21:47:06.018Z,8.70
2022-09-22T21:49:33.322Z,8.70
2022-09-22T21:52:01.258Z,8.60
2022-09-22T21:54:28.601Z,8.50
2022-09-22T21:56:57.251Z,8.50
2022-09-22T21:59:24.517Z,8.50
2022-09-22T22:01:52.049Z,8.50
2022-09-22T22:04:19.533Z,8.50
2022-09-22T22:06:47.130Z,8.40
2022-09-22T22:09:19.782Z,8.40
2022-09-22T22:11:55.782Z,8.40
2022-09-22T22:14:26.208Z,8.40
2022-09-22T22:16:55.190Z,8.30
2022-09-22T22:19:25.932Z,8.30
2022-09-22T22:21:54.431Z,8.30
2022-09-22T22:24:38.524Z,8.30
2022-09-22T22:27:10.116Z,8.40
2022-09-22T22:29:41.500Z,8.30
2022-09-22T22:32:10.592Z,8.30
2022-09-22T22:34:38.549Z,8.30
2022-09-22T22:37:09.532Z,8.30
2022-09-22T22:39:37.507Z,8.30
2022-09-22T22:42:06.139Z,8.40
2022-09-22T22:44:35.092Z,8.30
2022-09-22T22:47:02.441Z,8.40
2022-09-22T22:49:29.728Z,8.30
2022-09-22T22:51:57.423Z,8.30
2022-09-22T22:54:24.735Z,8.30
2022-09-22T22:56:52.025Z,8.30
2022-09-22T22:59:19.527Z,8.30
2022-09-22T23:01:46.987Z,8.20
2022-09-22T23:04:16.578Z,8.20
2022-09-22T23:06:44.380Z,8.20
2022-09-22T23:09:15.527Z,8.20
2022-09-22T23:11:43.747Z,8.20
2022-09-22T23:14:12.602Z,8.20
2022-09-22T23:16:45.213Z,8.20
2022-09-22T23:19:17.368Z,8.20
2022-09-22T23:21:46.394Z,8.20
2022-09-22T23:24:16.106Z,8.20
2022-09-22T23:26:45.304Z,8.10
2022-09-22T23:29:13.146Z,8.10
2022-09-22T23:31:40.460Z,8.10
2022-09-22T23:34:07.985Z,8.10
2022-09-22T23:36:35.644Z,8.10
2022-09-22T23:39:05.052Z,8.10
2022-09-22T23:41:34.049Z,8.00
2022-09-22T23:44:03.074Z,8.00
2022-09-22T23:46:31.227Z,8.00
2022-09-22T23:49:00.112Z,8.00
2022-09-22T23:51:28.227Z,8.00
2022-09-22T23:53:56.209Z,8.00
2022-09-22T23:56:24.360Z,8.00
2022-09-22T23:58:52.540Z,8.00
